Oneida Indian Reservation, Wisconsin
Current Conditions -  °F | °C
As of 3:27 PM on Sunday 23 Nov 2014 (Local Time) from KASX Reporting Station
Moderate Fog Moderate Fog  
Wind Chill: 44°   Ceiling: 400
Heat Index: 44°   Visibility: 0.25mi
Dew Point: 44°   Wind: 0mph
Humidity: 100%   Direction: NA
Pressure: 29.38"   Gusts: NA
Location:  46.543°N, 90.8706°W
Report Text: KASX 232127Z AUTO 00000KT 1/4SM FG OVC004 07/07 A2938 RMK AO2 T00670067
Loading
Personal Weather Stations






























Interactive Weather Map New forecast layout! Learn more

10-Day Weather Forecast

Advertisements
Track Severe Weather on mobile